createdAt,value
2023-05-01T00:01:13.994Z,7.08
2023-05-01T00:03:44.492Z,7.08
2023-05-01T00:06:14.760Z,7.06
2023-05-01T00:08:45.615Z,7.04
2023-05-01T00:11:16.249Z,7.02
2023-05-01T00:13:49.096Z,6.97
2023-05-01T00:16:22.239Z,6.91
2023-05-01T00:18:53.991Z,6.85
2023-05-01T00:21:25.276Z,6.79
2023-05-01T00:23:54.825Z,6.74
2023-05-01T00:26:27.774Z,6.67
2023-05-01T00:28:59.387Z,6.61
2023-05-01T00:31:30.719Z,6.57
2023-05-01T00:34:02.358Z,6.52
2023-05-01T00:36:32.832Z,6.47
2023-05-01T00:39:05.246Z,6.41
2023-05-01T00:41:37.649Z,6.38
2023-05-01T00:44:09.163Z,6.38
2023-05-01T00:46:40.065Z,6.35
2023-05-01T00:49:11.596Z,6.32
2023-05-01T00:51:42.824Z,6.29
2023-05-01T00:54:13.798Z,6.28
2023-05-01T00:56:49.020Z,6.29
2023-05-01T00:59:22.368Z,6.27
2023-05-01T01:01:56.346Z,6.22
2023-05-01T01:04:32.821Z,6.18
2023-05-01T01:07:13.067Z,6.14
2023-05-01T01:10:04.902Z,6.10
2023-05-01T01:12:42.788Z,6.04
2023-05-01T01:15:25.513Z,5.98
2023-05-01T01:18:26.306Z,5.94
2023-05-01T01:21:06.458Z,5.87
2023-05-01T01:24:15.686Z,5.80
2023-05-01T01:27:00.165Z,5.72
2023-05-01T01:29:58.022Z,5.67
2023-05-01T01:33:04.813Z,5.60
2023-05-01T01:35:38.654Z,5.52
2023-05-01T01:38:19.224Z,5.46
2023-05-01T01:41:05.347Z,5.44
2023-05-01T01:43:42.919Z,5.42
2023-05-01T01:46:18.597Z,5.42
2023-05-01T01:48:51.377Z,5.41
2023-05-01T01:51:24.103Z,5.40
2023-05-01T01:53:59.127Z,5.36
2023-05-01T01:56:32.030Z,5.32
2023-05-01T01:59:05.096Z,5.25
2023-05-01T02:01:38.567Z,5.20
2023-05-01T02:04:11.144Z,5.14
2023-05-01T02:06:44.873Z,5.08
2023-05-01T02:09:18.004Z,5.03
2023-05-01T02:11:52.182Z,4.99
2023-05-01T02:14:28.317Z,4.94
2023-05-01T02:17:01.468Z,4.88
2023-05-01T02:19:34.243Z,4.82
2023-05-01T02:22:07.917Z,4.77
2023-05-01T02:24:45.804Z,4.75
2023-05-01T02:27:31.645Z,4.72
2023-05-01T02:30:02.744Z,4.71
2023-05-01T02:32:37.261Z,4.70
2023-05-01T02:35:08.481Z,4.66
2023-05-01T02:37:40.250Z,4.60
2023-05-01T02:40:14.738Z,4.55
2023-05-01T02:42:49.336Z,4.50
2023-05-01T02:45:22.063Z,4.44
2023-05-01T02:47:57.300Z,4.39
2023-05-01T02:50:29.042Z,4.32
2023-05-01T02:53:00.115Z,4.23
2023-05-01T02:56:05.765Z,4.10
2023-05-01T02:58:39.980Z,4.05
2023-05-01T03:01:13.227Z,4.00
2023-05-01T03:03:43.983Z,3.98
2023-05-01T03:06:15.947Z,3.97
2023-05-01T03:08:48.513Z,3.95
2023-05-01T03:11:20.095Z,3.94
2023-05-01T03:13:49.995Z,3.93
2023-05-01T03:16:20.538Z,3.91
2023-05-01T03:18:51.024Z,3.92
2023-05-01T03:21:23.616Z,3.94
2023-05-01T03:23:54.951Z,3.96
2023-05-01T03:26:28.961Z,3.96
2023-05-01T03:29:02.832Z,3.95
2023-05-01T03:31:34.908Z,3.95
2023-05-01T03:34:08.367Z,3.94
2023-05-01T03:36:39.007Z,3.96
2023-05-01T03:39:09.834Z,3.98
2023-05-01T03:42:06.501Z,3.98
2023-05-01T03:44:42.986Z,4.02
2023-05-01T03:47:13.198Z,4.04
2023-05-01T03:49:45.146Z,4.07
2023-05-01T03:52:17.652Z,4.08
2023-05-01T03:54:48.088Z,4.10
2023-05-01T03:57:25.628Z,4.13
2023-05-01T03:59:56.394Z,4.19
2023-05-01T04:02:26.295Z,4.27
2023-05-01T04:04:57.130Z,4.39
2023-05-01T04:07:26.921Z,4.50
2023-05-01T04:09:57.111Z,4.63
2023-05-01T04:12:26.820Z,4.85
2023-05-01T04:14:56.133Z,5.09
2023-05-01T04:17:26.176Z,5.32
2023-05-01T04:19:56.689Z,5.52
2023-05-01T04:22:26.455Z,5.64
2023-05-01T04:24:55.663Z,5.68
2023-05-01T04:27:25.904Z,5.65
2023-05-01T04:29:55.610Z,5.67
2023-05-01T04:32:25.086Z,5.72
2023-05-01T04:34:54.613Z,5.80
2023-05-01T04:37:25.220Z,5.90
2023-05-01T04:39:55.009Z,6.14
2023-05-01T04:42:24.034Z,6.46
2023-05-01T04:44:53.844Z,6.82
2023-05-01T04:47:24.380Z,7.25
2023-05-01T04:49:53.259Z,7.54
2023-05-01T04:52:22.914Z,7.91
2023-05-01T04:54:58.929Z,8.28
2023-05-01T04:57:29.874Z,8.63
2023-05-01T04:59:59.671Z,8.97
2023-05-01T05:02:28.745Z,9.40
2023-05-01T05:04:58.590Z,9.84
2023-05-01T05:07:27.882Z,10.22
2023-05-01T05:10:16.432Z,10.69
2023-05-01T05:12:50.558Z,10.97
2023-05-01T05:15:19.842Z,11.14
2023-05-01T05:17:49.065Z,11.25
2023-05-01T05:20:18.131Z,11.47
2023-05-01T05:22:46.717Z,11.34
2023-05-01T05:25:27.195Z,11.58
2023-05-01T05:27:55.976Z,11.85
2023-05-01T05:30:25.168Z,11.93
2023-05-01T05:32:55.266Z,12.17
2023-05-01T05:35:24.348Z,12.64
2023-05-01T05:37:53.292Z,12.91
2023-05-01T05:40:21.773Z,13.10
2023-05-01T05:42:59.567Z,13.24
2023-05-01T05:45:29.523Z,13.70
2023-05-01T05:47:58.176Z,13.82
2023-05-01T05:50:28.060Z,13.70
2023-05-01T05:52:56.762Z,14.16
2023-05-01T05:55:25.519Z,14.03
2023-05-01T05:58:05.189Z,13.75
2023-05-01T06:00:33.990Z,13.58
2023-05-01T06:03:06.047Z,13.78
2023-05-01T06:05:35.098Z,13.83
2023-05-01T06:08:04.272Z,13.84
2023-05-01T06:10:33.332Z,13.63
2023-05-01T06:13:09.519Z,13.93
2023-05-01T06:15:46.324Z,14.16
2023-05-01T06:18:15.319Z,14.34
2023-05-01T06:20:44.134Z,14.45
2023-05-01T06:23:14.052Z,14.69
2023-05-01T06:26:05.641Z,14.55
2023-05-01T06:28:34.414Z,14.61
2023-05-01T06:31:03.501Z,14.76
2023-05-01T06:33:34.617Z,15.18
2023-05-01T06:36:10.452Z,15.18
2023-05-01T06:38:40.971Z,15.57
2023-05-01T06:41:10.284Z,15.63
2023-05-01T06:43:38.980Z,15.76
2023-05-01T06:46:07.868Z,15.95
2023-05-01T06:48:37.254Z,16.36
2023-05-01T06:51:08.202Z,16.40
2023-05-01T06:53:38.108Z,16.27
2023-05-01T06:56:07.128Z,16.50
2023-05-01T06:58:35.953Z,16.96
2023-05-01T07:01:05.043Z,17.57
2023-05-01T07:03:34.103Z,17.85
2023-05-01T07:06:02.837Z,18.15
2023-05-01T07:08:31.973Z,18.38
2023-05-01T07:11:00.854Z,18.49
2023-05-01T07:13:29.660Z,18.72
2023-05-01T07:15:58.671Z,18.87
2023-05-01T07:18:27.840Z,19.18
2023-05-01T07:20:56.742Z,19.25
2023-05-01T07:23:26.233Z,19.19
2023-05-01T07:25:56.050Z,19.39
2023-05-01T07:28:25.033Z,19.83
2023-05-01T07:30:53.921Z,19.90
2023-05-01T07:33:25.275Z,20.00
2023-05-01T07:35:55.297Z,20.09
2023-05-01T07:38:23.972Z,20.28
2023-05-01T07:40:57.836Z,20.63
2023-05-01T07:43:26.488Z,21.01
2023-05-01T07:46:00.825Z,21.31
2023-05-01T07:48:29.930Z,21.54
2023-05-01T07:51:02.614Z,21.74
2023-05-01T07:53:32.079Z,21.77
2023-05-01T07:56:09.303Z,22.02
2023-05-01T07:58:38.326Z,22.19
2023-05-01T08:01:06.928Z,22.15
2023-05-01T08:03:37.005Z,22.46
2023-05-01T08:06:06.760Z,22.85
2023-05-01T08:08:35.688Z,22.18
2023-05-01T08:11:04.511Z,21.75
2023-05-01T08:13:33.454Z,21.65
2023-05-01T08:16:03.699Z,21.84
2023-05-01T08:18:32.395Z,21.89
2023-05-01T08:21:01.230Z,22.24
2023-05-01T08:23:30.186Z,22.25
2023-05-01T08:25:59.456Z,22.19
2023-05-01T08:28:28.353Z,22.59
2023-05-01T08:30:57.239Z,22.79
2023-05-01T08:33:26.088Z,22.89
2023-05-01T08:35:54.939Z,22.62
2023-05-01T08:38:23.571Z,23.13
2023-05-01T08:40:54.702Z,23.57
2023-05-01T08:43:24.528Z,23.60
2023-05-01T08:45:55.625Z,23.84
2023-05-01T08:48:25.932Z,23.87
2023-05-01T08:51:00.013Z,23.84
2023-05-01T08:53:29.864Z,23.89
2023-05-01T08:56:00.851Z,23.78
2023-05-01T08:58:30.647Z,23.96
2023-05-01T09:01:01.559Z,24.24
2023-05-01T09:03:33.720Z,24.19
2023-05-01T09:06:04.637Z,23.86
2023-05-01T09:08:33.934Z,24.39
2023-05-01T09:11:04.047Z,24.68
2023-05-01T09:13:33.646Z,24.79
2023-05-01T09:16:03.631Z,24.80
2023-05-01T09:18:32.497Z,24.55
2023-05-01T09:21:02.553Z,23.34
2023-05-01T09:23:31.907Z,23.65
2023-05-01T09:26:01.060Z,24.48
2023-05-01T09:28:45.261Z,24.57
2023-05-01T09:31:24.933Z,24.35
2023-05-01T09:34:01.996Z,24.49
2023-05-01T09:36:32.854Z,24.20
2023-05-01T09:39:02.819Z,25.05
2023-05-01T09:41:34.517Z,25.04
2023-05-01T09:44:03.661Z,25.09
2023-05-01T09:46:44.206Z,25.89
2023-05-01T09:49:13.282Z,25.86
2023-05-01T09:51:41.846Z,26.59
2023-05-01T09:54:20.386Z,25.52
2023-05-01T09:56:50.090Z,24.80
2023-05-01T09:59:21.608Z,24.42
2023-05-01T10:01:50.966Z,23.60
2023-05-01T10:04:34.090Z,23.31
2023-05-01T10:07:13.745Z,22.73
2023-05-01T10:09:43.452Z,22.56
2023-05-01T10:12:24.756Z,22.61
2023-05-01T10:14:58.177Z,22.59
2023-05-01T10:17:27.129Z,23.60
2023-05-01T10:19:56.067Z,24.62
2023-05-01T10:22:27.099Z,25.70
2023-05-01T10:24:56.994Z,26.33
2023-05-01T10:27:27.253Z,27.10
2023-05-01T10:29:56.721Z,27.99
2023-05-01T10:32:26.200Z,28.67
2023-05-01T10:35:00.971Z,28.23
2023-05-01T10:37:48.089Z,27.51
2023-05-01T10:40:48.989Z,26.77
2023-05-01T10:43:32.495Z,26.07
2023-05-01T10:46:08.113Z,25.21
2023-05-01T10:48:39.884Z,24.56
2023-05-01T10:51:10.145Z,24.03
2023-05-01T10:53:40.240Z,23.64
2023-05-01T10:56:30.595Z,23.13
2023-05-01T10:59:01.206Z,22.73
2023-05-01T11:01:48.977Z,22.68
2023-05-01T11:04:27.550Z,22.47
2023-05-01T11:07:02.354Z,22.30
2023-05-01T11:09:42.609Z,22.06
2023-05-01T11:12:15.807Z,22.01
2023-05-01T11:15:03.505Z,21.84
2023-05-01T11:17:41.903Z,21.68
2023-05-01T11:20:36.794Z,21.71
2023-05-01T11:23:05.896Z,21.84
2023-05-01T11:25:34.659Z,22.52
2023-05-01T11:28:04.441Z,23.07
2023-05-01T11:30:51.831Z,23.58
2023-05-01T11:33:26.575Z,24.42
2023-05-01T11:36:00.725Z,24.95
2023-05-01T11:38:29.539Z,25.70
2023-05-01T11:41:00.479Z,26.63
2023-05-01T11:43:29.884Z,26.92
2023-05-01T11:46:03.573Z,26.84
2023-05-01T11:48:32.963Z,27.03
2023-05-01T11:51:01.541Z,27.63
2023-05-01T11:53:30.646Z,27.88
2023-05-01T11:56:00.273Z,27.60
2023-05-01T11:58:34.862Z,27.19
2023-05-01T12:01:04.249Z,27.15
2023-05-01T12:03:42.362Z,26.69
2023-05-01T12:06:15.576Z,26.70
2023-05-01T12:08:48.773Z,27.01
2023-05-01T12:11:18.110Z,26.54
2023-05-01T12:13:48.532Z,26.57
2023-05-01T12:16:17.509Z,26.82
2023-05-01T12:18:46.560Z,26.48
2023-05-01T12:21:17.928Z,26.17
2023-05-01T12:23:47.053Z,26.04
2023-05-01T12:26:16.757Z,25.42
2023-05-01T12:29:02.588Z,24.64
2023-05-01T12:31:31.967Z,23.82
2023-05-01T12:34:08.290Z,23.42
2023-05-01T12:36:38.075Z,23.64
2023-05-01T12:39:14.326Z,24.12
2023-05-01T12:41:48.533Z,24.04
2023-05-01T12:44:28.119Z,23.47
2023-05-01T12:47:00.569Z,23.28
2023-05-01T12:49:31.310Z,23.16
2023-05-01T12:52:01.753Z,22.87
2023-05-01T12:54:37.749Z,22.80
2023-05-01T12:57:18.251Z,22.66
2023-05-01T12:59:49.768Z,22.34
2023-05-01T13:02:18.648Z,21.98
2023-05-01T13:04:49.682Z,22.20
2023-05-01T13:07:19.613Z,21.98
2023-05-01T13:09:55.719Z,22.20
2023-05-01T13:12:26.498Z,22.13
2023-05-01T13:14:56.041Z,22.24
2023-05-01T13:17:28.806Z,22.67
2023-05-01T13:20:00.797Z,23.09
2023-05-01T13:22:34.772Z,23.47
2023-05-01T13:25:06.625Z,23.58
2023-05-01T13:27:35.438Z,23.81
2023-05-01T13:30:04.336Z,24.17
2023-05-01T13:32:33.075Z,24.16
2023-05-01T13:35:02.954Z,23.91
2023-05-01T13:37:32.731Z,23.54
2023-05-01T13:40:02.488Z,23.37
2023-05-01T13:42:31.898Z,23.21
2023-05-01T13:45:00.562Z,22.80
2023-05-01T13:47:30.346Z,22.70
2023-05-01T13:49:59.647Z,22.91
2023-05-01T13:52:28.395Z,23.12
2023-05-01T13:54:57.966Z,23.28
2023-05-01T13:57:26.989Z,23.54
2023-05-01T13:59:55.705Z,23.61
2023-05-01T14:02:27.406Z,23.30
2023-05-01T14:04:58.500Z,23.37
2023-05-01T14:07:30.359Z,23.37
2023-05-01T14:10:00.371Z,23.25
2023-05-01T14:12:31.454Z,23.14
2023-05-01T14:15:02.160Z,23.02
2023-05-01T14:17:33.555Z,22.87
2023-05-01T14:20:05.218Z,22.46
2023-05-01T14:22:46.404Z,22.43
2023-05-01T14:25:25.901Z,22.63
2023-05-01T14:27:55.992Z,22.51
2023-05-01T14:30:33.958Z,22.55
2023-05-01T14:33:04.056Z,22.50
2023-05-01T14:35:32.812Z,22.37
2023-05-01T14:38:10.809Z,22.51
2023-05-01T14:40:42.250Z,22.62
2023-05-01T14:43:16.267Z,22.70
2023-05-01T14:45:46.986Z,22.72
2023-05-01T14:48:41.708Z,22.70
2023-05-01T14:51:19.343Z,22.71
2023-05-01T14:53:48.088Z,22.54
2023-05-01T14:56:17.032Z,22.16
2023-05-01T14:58:47.227Z,22.26
2023-05-01T15:01:16.477Z,22.17
2023-05-01T15:03:45.815Z,22.26
2023-05-01T15:06:14.825Z,22.26
2023-05-01T15:08:43.807Z,22.30
2023-05-01T15:11:14.828Z,22.41
2023-05-01T15:13:44.504Z,22.44
2023-05-01T15:16:13.465Z,22.38
2023-05-01T15:18:42.339Z,22.29
2023-05-01T15:21:11.059Z,22.12
2023-05-01T15:23:45.386Z,22.05
2023-05-01T15:26:14.517Z,21.92
2023-05-01T15:28:43.525Z,21.77
2023-05-01T15:31:12.071Z,21.62
2023-05-01T15:33:41.269Z,21.44
2023-05-01T15:36:09.983Z,21.31
2023-05-01T15:38:38.675Z,21.20
2023-05-01T15:41:07.563Z,21.07
2023-05-01T15:43:36.384Z,20.97
2023-05-01T15:46:06.466Z,20.92
2023-05-01T15:48:35.658Z,20.85
2023-05-01T15:51:05.236Z,20.82
2023-05-01T15:53:33.758Z,20.77
2023-05-01T15:56:03.486Z,20.75
2023-05-01T15:58:32.341Z,20.73
2023-05-01T16:01:01.124Z,20.68
2023-05-01T16:03:30.827Z,20.62
2023-05-01T16:05:59.975Z,20.56
2023-05-01T16:08:28.844Z,20.52
2023-05-01T16:10:58.541Z,20.46
2023-05-01T16:13:27.177Z,20.41
2023-05-01T16:15:57.066Z,20.36
2023-05-01T16:18:25.946Z,20.32
2023-05-01T16:20:55.627Z,20.29
2023-05-01T16:23:25.656Z,20.24
2023-05-01T16:25:54.451Z,20.18
2023-05-01T16:28:26.516Z,20.09
2023-05-01T16:30:55.640Z,19.99
2023-05-01T16:33:24.511Z,19.93
2023-05-01T16:35:53.585Z,19.91
2023-05-01T16:38:22.596Z,19.88
2023-05-01T16:40:51.279Z,19.79
2023-05-01T16:43:22.652Z,19.64
2023-05-01T16:45:54.335Z,19.40
2023-05-01T16:48:24.766Z,19.14
2023-05-01T16:50:53.988Z,18.94
2023-05-01T16:53:23.809Z,18.72
2023-05-01T16:55:53.542Z,18.48
2023-05-01T16:58:22.221Z,18.22
2023-05-01T17:00:51.085Z,17.99
2023-05-01T17:03:19.773Z,17.75
2023-05-01T17:05:48.474Z,17.51
2023-05-01T17:08:17.258Z,17.24
2023-05-01T17:10:46.246Z,16.98
2023-05-01T17:13:16.164Z,16.76
2023-05-01T17:15:44.994Z,16.54
2023-05-01T17:18:13.625Z,16.39
2023-05-01T17:20:42.211Z,16.24
2023-05-01T17:23:10.893Z,16.09
2023-05-01T17:25:40.209Z,15.90
2023-05-01T17:28:08.783Z,15.71
2023-05-01T17:30:37.775Z,15.53
2023-05-01T17:33:06.694Z,15.36
2023-05-01T17:35:35.549Z,15.22
2023-05-01T17:38:04.447Z,15.09
2023-05-01T17:40:33.127Z,15.01
2023-05-01T17:43:02.939Z,14.96
2023-05-01T17:45:31.577Z,14.91
2023-05-01T17:48:01.097Z,14.84
2023-05-01T17:50:30.024Z,14.74
2023-05-01T17:52:58.813Z,14.64
2023-05-01T17:55:28.316Z,14.53
2023-05-01T17:57:57.005Z,14.37
2023-05-01T18:00:28.051Z,14.17
2023-05-01T18:02:56.964Z,13.95
2023-05-01T18:05:26.341Z,13.79
2023-05-01T18:07:54.920Z,13.64
2023-05-01T18:10:23.707Z,13.51
2023-05-01T18:12:53.030Z,13.38
2023-05-01T18:15:23.077Z,13.31
2023-05-01T18:17:52.191Z,13.26
2023-05-01T18:20:21.626Z,13.24
2023-05-01T18:22:50.821Z,13.20
2023-05-01T18:25:20.316Z,13.18
2023-05-01T18:27:49.521Z,13.13
2023-05-01T18:30:18.206Z,13.08
2023-05-01T18:32:49.066Z,13.02
2023-05-01T18:35:19.245Z,12.96
2023-05-01T18:37:47.957Z,12.89
2023-05-01T18:40:17.063Z,12.78
2023-05-01T18:42:45.946Z,12.65
2023-05-01T18:45:15.116Z,12.51
2023-05-01T18:47:43.694Z,12.37
2023-05-01T18:50:13.492Z,12.23
2023-05-01T18:52:42.632Z,12.06
2023-05-01T18:55:14.289Z,11.90
2023-05-01T18:57:44.094Z,11.74
2023-05-01T19:00:15.664Z,11.61
2023-05-01T19:02:51.961Z,11.54
2023-05-01T19:05:22.814Z,11.49
2023-05-01T19:07:52.259Z,11.47
2023-05-01T19:10:21.239Z,11.45
2023-05-01T19:12:49.722Z,11.42
2023-05-01T19:15:18.708Z,11.42
2023-05-01T19:17:47.315Z,11.41
2023-05-01T19:20:16.499Z,11.39
2023-05-01T19:22:45.384Z,11.37
2023-05-01T19:25:14.281Z,11.34
2023-05-01T19:27:43.061Z,11.30
2023-05-01T19:30:13.803Z,11.24
2023-05-01T19:32:42.503Z,11.16
2023-05-01T19:35:11.995Z,11.06
2023-05-01T19:37:41.184Z,10.95
2023-05-01T19:40:10.392Z,10.88
2023-05-01T19:42:39.065Z,10.82
2023-05-01T19:45:08.473Z,10.76
2023-05-01T19:47:37.070Z,10.71
2023-05-01T19:50:07.280Z,10.67
2023-05-01T19:52:36.167Z,10.61
2023-05-01T19:55:05.668Z,10.55
2023-05-01T19:57:34.458Z,10.47
2023-05-01T20:00:04.281Z,10.40
2023-05-01T20:02:39.611Z,10.35
2023-05-01T20:05:08.921Z,10.28
2023-05-01T20:07:37.620Z,10.23
2023-05-01T20:10:07.580Z,10.17
2023-05-01T20:12:36.309Z,10.10
2023-05-01T20:15:06.113Z,10.05
2023-05-01T20:17:35.695Z,9.98
2023-05-01T20:20:05.144Z,9.89
2023-05-01T20:22:34.228Z,9.80
2023-05-01T20:25:04.556Z,9.69
2023-05-01T20:27:34.354Z,9.59
2023-05-01T20:30:03.259Z,9.53
2023-05-01T20:32:32.837Z,9.47
2023-05-01T20:35:02.053Z,9.44
2023-05-01T20:37:31.258Z,9.44
2023-05-01T20:40:00.788Z,9.43
2023-05-01T20:42:29.964Z,9.44
2023-05-01T20:44:59.053Z,9.45
2023-05-01T20:47:29.860Z,9.47
2023-05-01T20:49:59.350Z,9.49
2023-05-01T20:52:28.591Z,9.50
2023-05-01T20:54:58.299Z,9.47
2023-05-01T20:57:28.211Z,9.42
2023-05-01T20:59:57.167Z,9.38
2023-05-01T21:02:26.539Z,9.36
2023-05-01T21:04:56.187Z,9.37
2023-05-01T21:07:24.907Z,9.38
2023-05-01T21:09:54.518Z,9.36
2023-05-01T21:12:23.931Z,9.34
2023-05-01T21:14:52.794Z,9.31
2023-05-01T21:17:21.697Z,9.26
2023-05-01T21:19:50.985Z,9.22
2023-05-01T21:22:24.911Z,9.23
2023-05-01T21:24:55.256Z,9.23
2023-05-01T21:27:25.338Z,9.28
2023-05-01T21:29:58.508Z,9.37
2023-05-01T21:32:33.506Z,9.40
2023-05-01T21:35:04.214Z,9.41
2023-05-01T21:37:34.019Z,9.40
2023-05-01T21:40:06.904Z,9.37
2023-05-01T21:42:40.090Z,9.31
2023-05-01T21:45:14.464Z,9.22
2023-05-01T21:47:48.568Z,9.10
2023-05-01T21:50:20.171Z,9.02
2023-05-01T21:52:50.732Z,8.89
2023-05-01T21:55:23.231Z,8.76
2023-05-01T21:57:53.920Z,8.67
2023-05-01T22:00:22.807Z,8.60
2023-05-01T22:02:52.469Z,8.57
2023-05-01T22:05:23.212Z,8.58
2023-05-01T22:07:53.141Z,8.56
2023-05-01T22:10:22.365Z,8.51
2023-05-01T22:12:52.177Z,8.48
2023-05-01T22:15:21.886Z,8.45
2023-05-01T22:17:51.562Z,8.38
2023-05-01T22:20:20.887Z,8.20
2023-05-01T22:22:50.089Z,7.91
2023-05-01T22:25:20.317Z,7.78
2023-05-01T22:27:49.820Z,7.67
2023-05-01T22:30:20.864Z,7.61
2023-05-01T22:32:50.893Z,7.57
2023-05-01T22:35:19.908Z,7.58
2023-05-01T22:37:49.696Z,7.62
2023-05-01T22:40:19.626Z,7.64
2023-05-01T22:42:50.119Z,7.67
2023-05-01T22:45:19.409Z,7.71
2023-05-01T22:47:49.469Z,7.72
2023-05-01T22:50:18.803Z,7.74
2023-05-01T22:52:48.394Z,7.67
2023-05-01T22:55:18.393Z,7.46
2023-05-01T22:57:49.218Z,7.14
2023-05-01T23:00:19.853Z,6.99
2023-05-01T23:02:50.678Z,6.91
2023-05-01T23:05:22.359Z,6.84
2023-05-01T23:07:52.564Z,6.82
2023-05-01T23:10:26.568Z,6.79
2023-05-01T23:12:58.811Z,6.79
2023-05-01T23:15:28.670Z,6.76
2023-05-01T23:17:59.141Z,6.79
2023-05-01T23:20:31.096Z,6.83
2023-05-01T23:23:06.026Z,6.85
2023-05-01T23:25:36.524Z,6.87
2023-05-01T23:28:09.785Z,6.92
2023-05-01T23:30:46.239Z,6.98
2023-05-01T23:33:20.883Z,7.03
2023-05-01T23:35:53.436Z,7.06
2023-05-01T23:38:26.700Z,7.07
2023-05-01T23:40:58.013Z,7.04
2023-05-01T23:43:28.243Z,6.96
2023-05-01T23:45:58.539Z,6.88
2023-05-01T23:48:30.413Z,6.83
2023-05-01T23:51:02.133Z,6.79
2023-05-01T23:53:32.466Z,6.72
2023-05-01T23:56:02.307Z,6.67
2023-05-01T23:58:33.302Z,6.61
